createdAt,value
2022-10-18T00:13:18.404Z,11.35
2022-10-18T00:33:18.324Z,11.10
2022-10-18T00:53:18.344Z,11.37
2022-10-18T01:13:18.367Z,11.01
2022-10-18T01:33:18.281Z,11.25
2022-10-18T01:53:18.302Z,11.19
2022-10-18T02:13:18.321Z,10.84
2022-10-18T02:33:18.237Z,10.69
2022-10-18T02:53:18.259Z,10.67
2022-10-18T03:13:18.275Z,10.52
2022-10-18T03:33:18.193Z,10.93
2022-10-18T03:53:18.209Z,10.85
2022-10-18T04:13:18.231Z,11.04
2022-10-18T04:33:18.145Z,10.91
2022-10-18T04:53:18.171Z,10.81
2022-10-18T05:13:18.183Z,10.67
2022-10-18T05:33:18.100Z,11.00
2022-10-18T05:53:18.118Z,11.12
2022-10-18T06:13:18.136Z,11.60
2022-10-18T06:33:18.155Z,11.97
2022-10-18T06:53:18.072Z,12.29
2022-10-18T07:13:18.095Z,12.47
2022-10-18T07:33:18.005Z,12.84
2022-10-18T07:53:18.023Z,13.16
2022-10-18T08:13:18.045Z,13.43
2022-10-18T08:33:17.993Z,13.52
2022-10-18T08:53:18.104Z,13.87
2022-10-18T09:13:18.008Z,15.46
2022-10-18T09:33:17.933Z,16.54
2022-10-18T09:53:17.953Z,17.02
2022-10-18T10:13:17.889Z,17.16
2022-10-18T10:33:17.885Z,17.46
2022-10-18T10:53:17.809Z,18.03
2022-10-18T11:13:17.830Z,18.96
2022-10-18T11:33:17.755Z,19.81
2022-10-18T11:53:17.781Z,20.32
2022-10-18T12:13:17.703Z,20.94
2022-10-18T12:33:17.731Z,21.13
2022-10-18T12:53:17.650Z,22.24
2022-10-18T13:13:17.676Z,21.15
2022-10-18T13:33:17.600Z,20.23
2022-10-18T13:53:17.627Z,20.16
2022-10-18T14:14:14.624Z,19.97
2022-10-18T14:33:17.517Z,19.68
2022-10-18T14:53:17.542Z,19.87
2022-10-18T15:13:17.466Z,19.62
2022-10-18T15:33:17.511Z,19.12
2022-10-18T15:53:17.417Z,18.29
2022-10-18T16:13:17.445Z,17.65
2022-10-18T16:33:17.357Z,17.27
2022-10-18T16:53:17.379Z,17.00
2022-10-18T17:13:17.403Z,16.78
2022-10-18T17:33:17.330Z,16.49
2022-10-18T17:53:17.356Z,16.11
2022-10-18T18:13:17.283Z,15.72
2022-10-18T18:33:17.296Z,15.26
2022-10-18T18:53:17.221Z,14.90
2022-10-18T19:13:17.241Z,14.59
2022-10-18T19:33:17.167Z,14.36
2022-10-18T19:53:17.210Z,14.11
2022-10-18T20:13:17.124Z,14.03
2022-10-18T20:33:17.139Z,13.97
2022-10-18T20:53:17.159Z,13.81
2022-10-18T21:13:17.113Z,13.63
2022-10-18T21:53:17.024Z,13.82
2022-10-18T22:13:17.048Z,13.85
2022-10-18T22:33:17.100Z,13.44
2022-10-18T22:53:16.984Z,13.11
2022-10-18T23:13:17.010Z,13.03
2022-10-18T23:33:17.024Z,12.84
2022-10-18T23:53:16.952Z,12.96
